Time;durP1;ratioP1;P1;durP2;ratioP2;P2;SDS_P1;SDS_P2;PMS_P1;PMS_P2;Temp;Humidity;BMP_temperature;BMP_pressure;BME280_temperature;BME280_humidity;BME280_pressure;Samples;Min_cycle;Max_cycle;Signal;HPM_P1;HPM_P2
2023/05/28 00:00:32;;;;;;;22.65;9.40;;;;;;;12.46;100.00;101872.75;5001579;28;20042;-69
2023/05/28 00:02:57;;;;;;;22.83;9.93;;;;;;;12.31;100.00;101880.53;5003069;28;20031;-72
2023/05/28 00:05:24;;;;;;;23.48;10.10;;;;;;;12.17;100.00;101878.59;4968931;28;20070;-72
2023/05/28 00:07:49;;;;;;;23.73;10.05;;;;;;;12.16;100.00;101879.44;4973217;28;20509;-70
2023/05/28 00:10:15;;;;;;;23.00;10.00;;;;;;;11.97;100.00;101872.97;4969620;28;20038;-73
2023/05/28 00:12:40;;;;;;;23.80;10.20;;;;;;;11.83;100.00;101879.78;4971728;28;20059;-72
2023/05/28 00:15:06;;;;;;;23.38;9.90;;;;;;;11.68;100.00;101875.16;4973483;28;20061;-73
2023/05/28 00:17:32;;;;;;;23.05;9.93;;;;;;;11.67;100.00;101870.72;4973334;28;20126;-70
2023/05/28 00:19:58;;;;;;;24.27;9.80;;;;;;;11.69;100.00;101864.56;4969723;28;20042;-68
2023/05/28 00:22:23;;;;;;;22.75;9.70;;;;;;;11.69;100.00;101855.72;4969335;28;20026;-74
2023/05/28 00:24:48;;;;;;;23.25;9.93;;;;;;;11.62;100.00;101867.06;4970931;28;20030;-73
2023/05/28 00:27:14;;;;;;;23.25;9.63;;;;;;;11.65;100.00;101861.88;4967874;28;20062;-71
2023/05/28 00:29:39;;;;;;;23.98;10.13;;;;;;;11.57;100.00;101863.47;4972560;28;20091;-70
2023/05/28 00:32:05;;;;;;;24.02;10.25;;;;;;;11.56;100.00;101862.56;4972848;28;20038;-73
2023/05/28 00:34:30;;;;;;;23.48;9.85;;;;;;;11.45;100.00;101862.41;4968792;28;20043;-72
2023/05/28 00:36:56;;;;;;;24.63;10.52;;;;;;;11.22;100.00;101866.41;4967337;28;20074;-70
2023/05/28 00:39:21;;;;;;;24.35;10.40;;;;;;;11.15;100.00;101870.69;4972882;28;20122;-69
2023/05/28 00:41:47;;;;;;;23.52;10.10;;;;;;;10.98;100.00;101871.28;4973199;28;20401;-72
2023/05/28 00:44:12;;;;;;;23.50;10.25;;;;;;;10.96;100.00;101872.09;4972705;28;20030;-72
2023/05/28 00:46:44;;;;;;;23.95;10.73;;;;;;;10.79;100.00;101874.41;4963637;28;20028;-71
2023/05/28 00:49:10;;;;;;;23.10;10.70;;;;;;;10.68;100.00;101884.78;4967235;28;20058;-70
2023/05/28 00:51:36;;;;;;;23.63;10.32;;;;;;;10.68;100.00;101883.91;4973478;28;20122;-72
2023/05/28 00:54:03;;;;;;;25.25;10.93;;;;;;;10.57;100.00;101878.38;4976407;28;20129;-72
2023/05/28 00:56:29;;;;;;;23.92;10.95;;;;;;;10.54;100.00;101870.38;4974931;28;20037;-70
2023/05/28 00:58:55;;;;;;;24.27;10.77;;;;;;;10.66;100.00;101870.66;4971991;28;20114;-69
2023/05/28 01:01:24;;;;;;;24.08;10.98;;;;;;;10.77;100.00;101865.56;4972762;28;20363;-72
2023/05/28 01:03:51;;;;;;;24.52;10.77;;;;;;;10.84;100.00;101862.19;4987528;28;20054;-71
2023/05/28 01:06:17;;;;;;;23.88;10.38;;;;;;;10.96;100.00;101873.00;5003776;28;20032;-73
2023/05/28 01:08:43;;;;;;;23.60;10.23;;;;;;;11.04;100.00;101865.22;5005963;28;20065;-72
2023/05/28 01:11:13;;;;;;;23.75;10.45;;;;;;;10.99;100.00;101870.44;5006151;28;20123;-73
2023/05/28 01:13:39;;;;;;;24.10;11.00;;;;;;;10.97;100.00;101877.44;5005205;28;20043;-72
2023/05/28 01:16:05;;;;;;;24.23;10.80;;;;;;;11.07;100.00;101864.38;5005102;28;20026;-67
2023/05/28 01:18:33;;;;;;;25.30;11.27;;;;;;;11.15;100.00;101868.03;5006658;28;20030;-71
2023/05/28 01:21:02;;;;;;;24.92;11.23;;;;;;;11.13;100.00;101873.31;5006709;28;20030;-72
2023/05/28 01:23:28;;;;;;;24.73;10.93;;;;;;;11.24;100.00;101862.94;5006439;28;20030;-71
2023/05/28 01:25:55;;;;;;;25.58;11.35;;;;;;;11.28;100.00;101863.88;5004012;28;20088;-70
2023/05/28 01:28:21;;;;;;;26.08;11.65;;;;;;;11.15;100.00;101868.97;5004572;28;20485;-72
2023/05/28 01:30:47;;;;;;;26.35;11.48;;;;;;;11.25;100.00;101871.75;5004626;28;20026;-69
2023/05/28 01:33:13;;;;;;;25.98;11.73;;;;;;;11.28;100.00;101869.16;5004664;28;20117;-72
2023/05/28 01:35:39;;;;;;;25.20;12.32;;;;;;;11.23;100.00;101871.72;5004703;28;20057;-70
2023/05/28 01:38:08;;;;;;;26.98;11.82;;;;;;;11.31;100.00;101866.56;5006465;28;20052;-70
2023/05/28 01:40:35;;;;;;;26.48;12.55;;;;;;;11.33;100.00;101870.16;5006144;28;20037;-72
2023/05/28 01:43:02;;;;;;;26.80;12.93;;;;;;;11.35;100.00;101865.75;5005441;28;20026;-72
2023/05/28 01:45:28;;;;;;;25.98;12.50;;;;;;;11.34;100.00;101878.13;5005042;28;20494;-71
2023/05/28 01:47:54;;;;;;;25.67;11.98;;;;;;;11.43;100.00;101866.78;4987268;28;20037;-74
2023/05/28 01:50:20;;;;;;;27.92;11.95;;;;;;;11.47;100.00;101868.59;5005025;28;20030;-74
2023/05/28 01:52:46;;;;;;;26.73;12.40;;;;;;;11.47;100.00;101871.25;5004166;28;20015;-68
2023/05/28 01:55:13;;;;;;;26.88;12.45;;;;;;;11.51;100.00;101869.56;5005372;28;20393;-74
2023/05/28 01:57:39;;;;;;;25.95;12.30;;;;;;;11.51;100.00;101870.44;5004608;28;20489;-73
2023/05/28 02:00:06;;;;;;;25.77;12.32;;;;;;;11.46;100.00;101866.84;5005843;28;20104;-74
2023/05/28 02:02:32;;;;;;;24.88;12.25;;;;;;;11.48;100.00;101865.09;5004656;28;20490;-73
2023/05/28 02:04:57;;;;;;;26.67;11.98;;;;;;;11.48;100.00;101857.16;5002446;28;20039;-73
2023/05/28 02:07:23;;;;;;;25.67;12.23;;;;;;;11.47;100.00;101863.31;5005136;28;20053;-73
2023/05/28 02:09:48;;;;;;;26.23;11.52;;;;;;;11.42;100.00;101857.06;5003916;28;20034;-73
2023/05/28 02:12:15;;;;;;;25.77;12.52;;;;;;;11.42;100.00;101856.19;5005207;28;20045;-73
2023/05/28 02:14:41;;;;;;;25.80;12.57;;;;;;;11.41;100.00;101849.97;5005024;28;20058;-74
2023/05/28 02:17:07;;;;;;;26.45;12.10;;;;;;;11.38;100.00;101842.00;5003778;28;20034;-73
2023/05/28 02:19:32;;;;;;;25.80;11.93;;;;;;;11.41;100.00;101847.31;5005248;28;20033;-73
2023/05/28 02:21:58;;;;;;;26.85;12.60;;;;;;;11.24;100.00;101847.06;5004333;28;20041;-73
2023/05/28 02:24:23;;;;;;;26.25;12.20;;;;;;;11.16;100.00;101841.59;5002338;28;20161;-73
2023/05/28 02:26:50;;;;;;;24.92;11.98;;;;;;;11.12;100.00;101845.06;5004796;28;20077;-73
2023/05/28 02:29:15;;;;;;;25.17;11.88;;;;;;;11.06;100.00;101844.06;5004571;28;20127;-73
2023/05/28 02:31:40;;;;;;;24.63;12.23;;;;;;;11.05;100.00;101843.16;5004758;28;20065;-73
2023/05/28 02:34:07;;;;;;;24.90;12.20;;;;;;;10.99;100.00;101846.63;5003677;28;20065;-73
2023/05/28 02:36:32;;;;;;;24.95;12.10;;;;;;;10.91;100.00;101834.09;5001664;28;20027;-73
2023/05/28 02:38:58;;;;;;;27.67;13.13;;;;;;;10.80;100.00;101847.09;5005591;28;20472;-74
2023/05/28 02:41:23;;;;;;;25.13;12.05;;;;;;;10.63;100.00;101846.81;5004462;28;20044;-70
2023/05/28 02:43:49;;;;;;;25.27;11.60;;;;;;;10.55;100.00;101849.25;5004605;28;20030;-74
2023/05/28 02:46:14;;;;;;;25.98;12.10;;;;;;;10.43;100.00;101844.63;5002906;28;20073;-72
2023/05/28 02:48:40;;;;;;;27.27;12.10;;;;;;;10.41;100.00;101849.00;4984255;28;20031;-71
2023/05/28 02:51:05;;;;;;;24.10;12.10;;;;;;;10.34;100.00;101849.72;5004228;28;20045;-72
2023/05/28 02:53:31;;;;;;;26.35;12.55;;;;;;;10.32;100.00;101853.16;4987869;28;20105;-73
2023/05/28 02:55:57;;;;;;;25.05;11.63;;;;;;;10.41;100.00;101845.44;5003271;28;20030;-71
2023/05/28 02:58:23;;;;;;;25.33;11.88;;;;;;;10.43;100.00;101846.38;5004943;28;20358;-71
2023/05/28 03:00:49;;;;;;;24.50;11.63;;;;;;;10.46;100.00;101849.97;5002839;28;20034;-72
2023/05/28 03:03:15;;;;;;;26.30;11.60;;;;;;;10.52;100.00;101857.13;5003755;28;20049;-73
2023/05/28 03:05:41;;;;;;;26.30;11.27;;;;;;;10.53;100.00;101863.31;5000428;28;20373;-69
2023/05/28 03:08:06;;;;;;;25.15;11.60;;;;;;;10.54;100.00;101855.44;5005269;28;20087;-72
2023/05/28 03:10:31;;;;;;;27.10;11.63;;;;;;;10.56;100.00;101861.63;5005611;28;20045;-72
2023/05/28 03:12:57;;;;;;;25.67;11.40;;;;;;;10.58;100.00;101856.38;5004057;28;20029;-72
2023/05/28 03:15:26;;;;;;;25.67;11.68;;;;;;;10.54;100.00;101855.44;5004468;28;20126;-72
2023/05/28 03:17:52;;;;;;;25.23;11.02;;;;;;;10.59;100.00;101852.88;5002999;28;20046;-73
2023/05/28 03:20:17;;;;;;;25.10;11.30;;;;;;;10.57;100.00;101849.28;5004299;28;20042;-71
2023/05/28 03:22:43;;;;;;;23.52;10.90;;;;;;;10.57;100.00;101850.22;5004351;28;20451;-72
2023/05/28 03:25:09;;;;;;;25.58;11.25;;;;;;;10.58;100.00;101853.72;5000899;28;20045;-73
2023/05/28 03:27:34;;;;;;;25.20;11.50;;;;;;;10.57;100.00;101849.28;5003227;28;20033;-72
2023/05/28 03:29:59;;;;;;;25.38;11.48;;;;;;;10.49;100.00;101846.50;5003259;28;20175;-70
2023/05/28 03:32:25;;;;;;;25.15;11.18;;;;;;;10.43;100.00;101851.69;5003123;28;20038;-72
2023/05/28 03:34:50;;;;;;;24.35;11.20;;;;;;;10.48;100.00;101852.66;5002863;28;20027;-71
2023/05/28 03:37:16;;;;;;;24.23;11.10;;;;;;;10.51;100.00;101850.06;5000882;28;20025;-65
2023/05/28 03:39:41;;;;;;;26.38;11.40;;;;;;;10.49;100.00;101850.91;5002936;28;20475;-68
2023/05/28 03:42:07;;;;;;;26.52;11.52;;;;;;;10.52;100.00;101851.84;5002668;28;20026;-66
2023/05/28 03:44:33;;;;;;;25.00;10.88;;;;;;;10.45;100.00;101856.09;5003359;28;20030;-68
2023/05/28 03:46:59;;;;;;;26.08;11.65;;;;;;;10.48;100.00;101862.34;5000613;28;20022;-73
2023/05/28 03:49:24;;;;;;;26.55;11.60;;;;;;;10.46;100.00;101863.19;5001611;28;20037;-69
2023/05/28 03:51:50;;;;;;;25.13;11.15;;;;;;;10.50;100.00;101865.91;5002652;28;20470;-71
2023/05/28 03:54:15;;;;;;;25.85;10.93;;;;;;;10.50;100.00;101863.25;5002644;28;20030;-71
2023/05/28 03:56:41;;;;;;;26.30;11.20;;;;;;;10.55;100.00;101864.25;5002213;28;20436;-71
2023/05/28 03:59:06;;;;;;;23.23;10.80;;;;;;;10.57;100.00;101863.44;5001804;28;20486;-73
2023/05/28 04:01:33;;;;;;;25.20;10.93;;;;;;;10.59;100.00;101866.09;5003275;28;20132;-73
2023/05/28 04:03:59;;;;;;;24.65;10.80;;;;;;;10.60;100.00;101866.13;4985409;28;20046;-72
2023/05/28 04:06:24;;;;;;;25.30;11.07;;;;;;;10.61;100.00;101867.91;5000853;28;20037;-72
2023/05/28 04:08:50;;;;;;;25.33;11.05;;;;;;;10.63;100.00;101868.84;5003216;28;20156;-71
2023/05/28 04:11:15;;;;;;;24.42;10.77;;;;;;;10.64;100.00;101875.00;5002959;28;20382;-67
2023/05/28 04:13:40;;;;;;;24.27;11.00;;;;;;;10.68;100.00;101868.94;5002220;28;20030;-66
2023/05/28 04:16:07;;;;;;;26.80;10.95;;;;;;;10.69;100.00;101870.72;5002765;28;20078;-70
2023/05/28 04:18:32;;;;;;;25.23;11.20;;;;;;;10.67;100.00;101875.06;5001934;28;20041;-70
2023/05/28 04:20:57;;;;;;;26.67;11.60;;;;;;;10.65;100.00;101876.78;5002796;28;20432;-67
2023/05/28 04:23:23;;;;;;;26.35;11.05;;;;;;;10.70;100.00;101883.06;5002540;28;20401;-72
2023/05/28 04:25:50;;;;;;;25.30;10.40;;;;;;;10.74;100.00;101874.31;5002887;28;20040;-72
2023/05/28 04:28:15;;;;;;;26.80;11.35;;;;;;;10.73;100.00;101877.84;5002185;28;20141;-73
2023/05/28 04:30:40;;;;;;;24.77;11.23;;;;;;;10.79;100.00;101880.63;5003118;28;20555;-66
2023/05/28 04:33:06;;;;;;;24.67;10.65;;;;;;;10.85;100.00;101881.56;4984921;28;20061;-66
2023/05/28 04:35:32;;;;;;;24.85;11.05;;;;;;;10.88;100.00;101889.56;5001869;28;20030;-69
2023/05/28 04:37:59;;;;;;;27.02;11.10;;;;;;;10.85;100.00;101885.13;5002071;28;20057;-69
2023/05/28 04:40:24;;;;;;;25.45;11.07;;;;;;;10.92;100.00;101888.78;4985016;28;20030;-72
2023/05/28 04:42:53;;;;;;;25.23;10.50;;;;;;;10.90;100.00;101890.50;5002758;28;20031;-73
2023/05/28 04:45:19;;;;;;;25.30;10.73;;;;;;;10.94;100.00;101892.38;5002748;28;20030;-72
2023/05/28 04:47:44;;;;;;;24.30;10.88;;;;;;;10.94;100.00;101892.38;5002961;28;20112;-69
2023/05/28 04:50:10;;;;;;;24.80;10.98;;;;;;;10.97;100.00;101892.41;5003409;28;20113;-72
2023/05/28 04:52:35;;;;;;;25.55;11.23;;;;;;;11.03;100.00;101897.81;5002228;28;20037;-71
2023/05/28 04:55:05;;;;;;;26.27;11.15;;;;;;;11.06;100.00;101894.34;5002055;28;20065;-69
2023/05/28 04:57:32;;;;;;;27.25;11.65;;;;;;;11.05;100.00;101896.09;5001793;28;20021;-67
2023/05/28 04:59:57;;;;;;;25.63;11.48;;;;;;;11.11;100.00;101892.66;5001030;28;20522;-72
2023/05/28 05:02:23;;;;;;;26.63;11.77;;;;;;;11.11;100.00;101896.22;4984125;28;20112;-70
2023/05/28 05:04:48;;;;;;;25.10;11.02;;;;;;;11.21;100.00;101893.75;5001272;28;20146;-69
2023/05/28 05:07:14;;;;;;;25.63;11.48;;;;;;;11.24;100.00;101888.50;5003683;28;20466;-72
2023/05/28 05:09:40;;;;;;;27.98;12.02;;;;;;;11.29;100.00;101894.78;5001496;28;20042;-68
2023/05/28 05:12:07;;;;;;;27.25;12.05;;;;;;;11.39;100.00;101902.03;5001382;28;20034;-71
2023/05/28 05:14:36;;;;;;;25.45;11.40;;;;;;;11.39;100.00;101895.81;5001399;28;20042;-69
2023/05/28 05:17:02;;;;;;;27.35;11.35;;;;;;;11.48;100.00;101894.22;5001443;28;20057;-70
2023/05/28 05:19:28;;;;;;;27.27;11.20;;;;;;;11.54;100.00;101892.56;4985081;28;20076;-69
2023/05/28 05:21:53;;;;;;;25.55;11.30;;;;;;;11.54;100.00;101897.84;5001398;28;20030;-72
2023/05/28 05:24:19;;;;;;;26.42;11.35;;;;;;;11.60;100.00;101897.97;5001679;28;20561;-67
2023/05/28 05:26:44;;;;;;;24.95;11.15;;;;;;;11.68;100.00;101905.16;5003502;28;20030;-71
2023/05/28 05:29:10;;;;;;;25.38;11.18;;;;;;;11.74;100.00;101898.19;5001727;28;20018;-71
2023/05/28 05:31:35;;;;;;;26.02;11.38;;;;;;;11.83;100.00;101898.34;5002276;28;20448;-71
2023/05/28 05:34:01;;;;;;;26.33;11.57;;;;;;;11.85;100.00;101902.81;5002027;28;20069;-72
2023/05/28 05:36:26;;;;;;;25.95;11.95;;;;;;;11.92;100.00;101897.59;5001840;28;20596;-72
2023/05/28 05:38:51;;;;;;;26.33;11.77;;;;;;;11.97;100.00;101903.88;4999978;28;20470;-68
2023/05/28 05:41:17;;;;;;;28.13;12.10;;;;;;;12.07;100.00;101915.50;5005367;28;20046;-72
2023/05/28 05:43:42;;;;;;;26.75;11.98;;;;;;;12.14;100.00;101910.31;5006095;28;20389;-72
2023/05/28 05:46:07;;;;;;;26.90;12.13;;;;;;;12.19;100.00;101918.34;5004765;28;20416;-64
2023/05/28 05:48:33;;;;;;;27.95;11.85;;;;;;;12.29;100.00;101919.38;5001497;28;20080;-72
2023/05/28 05:51:00;;;;;;;26.08;11.82;;;;;;;12.36;100.00;101922.16;5006364;28;20030;-72
2023/05/28 05:53:26;;;;;;;27.27;11.77;;;;;;;12.45;100.00;101920.47;5004116;28;20034;-70
2023/05/28 05:55:52;;;;;;;26.20;11.50;;;;;;;12.53;100.00;101914.41;5003967;28;20493;-70
2023/05/28 05:58:17;;;;;;;27.52;12.82;;;;;;;12.63;100.00;101922.50;5004293;28;20113;-72
2023/05/28 06:00:44;;;;;;;26.75;11.93;;;;;;;12.70;100.00;101911.09;5004841;28;20082;-65
2023/05/28 06:03:09;;;;;;;28.58;12.32;;;;;;;12.80;100.00;101912.06;5004225;28;20046;-64
2023/05/28 06:05:35;;;;;;;27.83;12.02;;;;;;;12.89;100.00;101923.69;5004388;28;20049;-64
2023/05/28 06:08:02;;;;;;;24.73;11.02;;;;;;;12.99;100.00;101923.78;5004883;28;20026;-64
2023/05/28 06:10:28;;;;;;;25.65;11.48;;;;;;;13.06;100.00;101923.91;5005959;28;20088;-64
2023/05/28 06:12:53;;;;;;;25.88;10.82;;;;;;;13.15;100.00;101928.44;5005680;28;20416;-64
2023/05/28 06:15:18;;;;;;;27.70;11.63;;;;;;;13.20;100.00;101918.72;5002212;28;20109;-64
2023/05/28 06:17:44;;;;;;;25.45;11.23;;;;;;;13.28;100.00;101913.50;5004082;28;20470;-65
2023/05/28 06:20:10;;;;;;;25.30;11.07;;;;;;;13.38;100.00;101915.41;5005270;28;20038;-64
2023/05/28 06:22:35;;;;;;;25.13;11.32;;;;;;;13.48;100.00;101916.38;5004615;28;20034;-64
2023/05/28 06:25:03;;;;;;;26.05;11.40;;;;;;;13.58;100.00;101917.34;5005197;28;20030;-65
2023/05/28 06:27:28;;;;;;;26.25;10.90;;;;;;;13.70;100.00;101911.25;5004435;28;20034;-64
2023/05/28 06:29:53;;;;;;;24.85;11.23;;;;;;;13.80;100.00;101910.44;5002797;28;20125;-64
2023/05/28 06:32:19;;;;;;;24.77;10.70;;;;;;;13.90;100.00;101911.41;5004047;28;20069;-64
2023/05/28 06:34:44;;;;;;;27.10;11.13;;;;;;;14.03;100.00;101909.75;5004882;28;20036;-64
2023/05/28 06:37:10;;;;;;;25.58;10.75;;;;;;;14.15;100.00;101900.97;5002563;28;20041;-65
2023/05/28 06:39:36;;;;;;;23.92;10.75;;;;;;;14.23;100.00;101908.09;5004013;28;20030;-63
2023/05/28 06:42:02;;;;;;;26.83;10.70;;;;;;;14.34;100.00;101908.16;5004883;28;20124;-64
2023/05/28 06:44:27;;;;;;;26.48;10.73;;;;;;;14.47;100.00;101914.44;5004118;28;20109;-64
2023/05/28 06:46:52;;;;;;;26.00;10.70;;;;;;;14.55;100.00;101907.38;5002720;28;20021;-64
2023/05/28 06:49:18;;;;;;;25.40;10.57;;;;;;;14.61;100.00;101899.47;5005059;28;20053;-66
2023/05/28 06:51:43;;;;;;;25.60;10.38;;;;;;;14.72;100.00;101911.91;5002906;28;20029;-66
2023/05/28 06:54:08;;;;;;;26.60;10.82;;;;;;;14.84;100.00;101909.31;5003174;28;20030;-64
2023/05/28 06:56:34;;;;;;;25.35;10.38;;;;;;;14.99;100.00;101912.00;5005732;28;20464;-63
2023/05/28 06:58:59;;;;;;;24.10;9.98;;;;;;;15.10;100.00;101911.16;5003648;28;20125;-64
2023/05/28 07:01:25;;;;;;;24.52;10.13;;;;;;;15.23;100.00;101912.97;5004312;28;20527;-64
2023/05/28 07:03:50;;;;;;;25.65;10.38;;;;;;;15.38;100.00;101911.19;5001928;28;20577;-64
2023/05/28 07:06:15;;;;;;;24.65;9.95;;;;;;;15.51;100.00;101902.38;5004417;28;20030;-64
2023/05/28 07:08:44;;;;;;;25.17;8.93;;;;;;;15.62;100.00;101911.22;5003746;28;20121;-64
2023/05/28 07:11:10;;;;;;;23.35;8.68;;;;;;;15.76;100.00;101908.56;5003940;28;20069;-64
2023/05/28 07:13:36;;;;;;;24.08;9.07;;;;;;;15.90;100.00;101911.28;5003013;28;20153;-64
2023/05/28 07:16:02;;;;;;;22.63;8.38;;;;;;;16.11;100.00;101912.13;5002759;28;20137;-69
2023/05/28 07:18:27;;;;;;;23.25;8.82;;;;;;;16.18;100.00;101908.56;5001939;28;20058;-72
2023/05/28 07:20:53;;;;;;;22.63;8.60;;;;;;;16.30;100.00;101916.53;5002569;28;20037;-70
2023/05/28 07:23:18;;;;;;;22.77;8.68;;;;;;;16.39;100.00;101921.81;5003590;28;20034;-73
2023/05/28 07:25:44;;;;;;;23.00;8.20;;;;;;;16.56;100.00;101923.56;5003808;28;20034;-73
2023/05/28 07:28:09;;;;;;;23.45;8.70;;;;;;;16.73;100.00;101913.72;5000803;28;20073;-68
2023/05/28 07:30:35;;;;;;;22.98;8.55;;;;;;;16.89;100.00;101927.94;5003124;28;20084;-74
2023/05/28 07:33:00;;;;;;;21.63;8.18;;;;;;;16.97;100.00;101930.56;5002884;28;20034;-72
2023/05/28 07:35:25;;;;;;;22.25;8.18;;;;;;;17.03;100.00;101935.84;5003533;28;20042;-72
2023/05/28 07:37:52;;;;;;;23.83;8.32;;;;;;;17.06;100.00;101925.16;5004237;28;20062;-72
2023/05/28 07:40:18;;;;;;;23.83;8.40;;;;;;;17.15;100.00;101934.88;5002357;28;20065;-70
2023/05/28 07:42:43;;;;;;;22.75;8.57;;;;;;;17.37;100.00;101933.00;5002767;28;20058;-70
2023/05/28 07:45:09;;;;;;;22.58;8.25;;;;;;;17.63;100.00;101920.34;5002814;28;20466;-73
2023/05/28 07:47:35;;;;;;;23.27;8.23;;;;;;;17.77;100.00;101919.31;5001486;28;20066;-67
2023/05/28 07:50:01;;;;;;;22.83;8.90;;;;;;;17.84;100.00;101928.19;5002981;28;20033;-71
2023/05/28 07:52:29;;;;;;;24.60;9.05;;;;;;;17.91;100.00;101929.03;5001901;28;20033;-70
2023/05/28 07:54:56;;;;;;;24.25;9.32;;;;;;;17.95;100.00;101925.44;5003770;28;20030;-71
2023/05/28 07:57:22;;;;;;;24.48;9.23;;;;;;;18.01;100.00;101933.38;5003289;28;20380;-73
2023/05/28 07:59:47;;;;;;;25.20;9.43;;;;;;;18.00;100.00;101933.41;5002317;28;20109;-72
2023/05/28 08:02:13;;;;;;;24.45;9.13;;;;;;;17.99;100.00;101926.31;5001120;28;20030;-72
2023/05/28 08:04:38;;;;;;;23.70;8.93;;;;;;;18.08;100.00;101929.75;5003683;28;20046;-72
2023/05/28 08:07:04;;;;;;;24.38;9.65;;;;;;;18.06;100.00;101928.91;5000296;28;20381;-72
2023/05/28 08:09:29;;;;;;;25.05;10.07;;;;;;;17.97;100.00;101931.66;5003260;28;20121;-73
2023/05/28 08:11:55;;;;;;;27.08;9.90;;;;;;;17.98;100.00;101928.06;5003236;28;20037;-71
2023/05/28 08:14:20;;;;;;;25.02;10.00;;;;;;;17.97;100.00;101930.75;5002157;28;20084;-64
2023/05/28 08:16:45;;;;;;;23.58;9.68;;;;;;;17.82;100.00;101929.09;5002347;28;20061;-64
2023/05/28 08:19:11;;;;;;;24.80;10.23;;;;;;;17.72;100.00;101933.63;5004900;28;20476;-62
2023/05/28 08:21:36;;;;;;;25.27;9.43;;;;;;;17.80;100.00;101926.44;5002324;28;20046;-65
2023/05/28 08:24:02;;;;;;;23.27;9.82;;;;;;;17.76;100.00;101928.22;5002480;28;20027;-64
2023/05/28 08:26:27;;;;;;;25.38;10.50;;;;;;;17.78;100.00;101930.91;5003495;28;20030;-67
2023/05/28 08:28:52;;;;;;;25.33;10.25;;;;;;;17.99;100.00;101928.97;4999885;28;20030;-64
2023/05/28 08:31:18;;;;;;;24.98;10.30;;;;;;;18.12;100.00;101926.16;5003091;28;20104;-67
2023/05/28 08:33:43;;;;;;;23.92;10.00;;;;;;;18.35;100.00;101926.81;4986105;28;20033;-65
2023/05/28 08:36:08;;;;;;;23.35;9.52;;;;;;;18.52;100.00;101923.94;5000773;28;20026;-65
2023/05/28 08:38:34;;;;;;;23.77;10.00;;;;;;;18.75;100.00;101927.22;5002748;28;20026;-64
2023/05/28 08:41:01;;;;;;;24.17;9.65;;;;;;;19.02;100.00;101924.22;5001366;28;20052;-67
2023/05/28 08:43:27;;;;;;;27.13;10.27;;;;;;;19.26;100.00;101917.66;5002815;28;20109;-65
2023/05/28 08:45:53;;;;;;;23.75;9.50;;;;;;;19.59;98.62;101915.38;5001569;28;20035;-64
2023/05/28 08:48:20;;;;;;;24.40;9.75;;;;;;;19.85;91.64;101913.13;5003403;28;20041;-65
2023/05/28 08:50:48;;;;;;;23.60;9.20;;;;;;;19.96;90.90;101909.38;5001574;28;20026;-65
2023/05/28 08:53:17;;;;;;;23.00;9.23;;;;;;;20.01;89.68;101912.88;5002932;28;20026;-67
2023/05/28 08:55:46;;;;;;;25.98;9.85;;;;;;;20.11;87.04;101909.13;5001784;28;20066;-65
2023/05/28 08:58:13;;;;;;;22.33;8.98;;;;;;;20.33;87.39;101909.59;5002906;28;20093;-67
2023/05/28 09:00:38;;;;;;;23.13;8.30;;;;;;;20.47;77.94;101906.59;5002463;28;20481;-68
2023/05/28 09:03:07;;;;;;;21.92;7.50;;;;;;;20.66;74.16;101896.44;5001310;28;20125;-65
2023/05/28 09:05:36;;;;;;;21.15;6.80;;;;;;;20.94;72.10;101908.34;5001715;28;20061;-64
2023/05/28 09:08:06;;;;;;;21.05;6.60;;;;;;;21.05;67.08;101898.25;5001109;28;20030;-63
2023/05/28 09:10:32;;;;;;;19.77;5.72;;;;;;;21.18;61.58;101897.03;5002264;28;20125;-65
2023/05/28 09:12:59;;;;;;;20.08;5.60;;;;;;;21.37;58.89;101899.31;5001968;28;20033;-64
2023/05/28 09:15:24;;;;;;;21.08;5.60;;;;;;;21.49;57.12;101890.03;5004252;28;20426;-65
2023/05/28 09:17:50;;;;;;;18.70;5.80;;;;;;;21.76;58.07;101888.50;5006997;28;20118;-65
2023/05/28 09:20:15;;;;;;;20.45;5.97;;;;;;;21.90;58.10;101897.09;5005290;28;20092;-65
2023/05/28 09:22:41;;;;;;;19.60;6.00;;;;;;;22.17;57.88;101897.25;5006098;28;20034;-64
2023/05/28 09:25:07;;;;;;;20.27;5.82;;;;;;;22.13;56.45;101889.31;5006590;28;20108;-65
2023/05/28 09:27:34;;;;;;;20.13;6.00;;;;;;;22.01;55.06;101893.22;5003221;28;20035;-64
2023/05/28 09:30:07;;;;;;;21.55;6.00;;;;;;;22.11;55.40;101892.94;5005920;28;20109;-65
2023/05/28 09:32:36;;;;;;;21.23;6.32;;;;;;;22.28;56.19;101894.28;5006147;28;20029;-65
2023/05/28 09:35:05;;;;;;;20.05;5.75;;;;;;;22.36;53.30;101886.00;5005680;28;20041;-65
2023/05/28 09:37:31;;;;;;;21.40;5.78;;;;;;;22.38;52.18;101890.44;5005462;28;20036;-65
2023/05/28 09:40:01;;;;;;;20.45;5.80;;;;;;;22.40;52.76;101902.03;5004311;28;20478;-64
2023/05/28 09:42:33;;;;;;;20.58;5.53;;;;;;;22.46;51.94;101893.78;5004973;28;20023;-66
2023/05/28 09:45:00;;;;;;;19.85;6.00;;;;;;;22.60;51.41;101895.19;5005361;28;20489;-67
2023/05/28 09:47:25;;;;;;;19.10;5.70;;;;;;;22.80;50.95;101891.88;5003356;28;20026;-64
2023/05/28 09:49:51;;;;;;;21.00;5.80;;;;;;;23.18;50.23;101892.53;5005605;28;20426;-65
2023/05/28 09:52:21;;;;;;;18.27;5.13;;;;;;;23.73;48.88;101892.50;5004580;28;20403;-65
2023/05/28 09:54:51;;;;;;;17.67;5.32;;;;;;;24.07;47.07;101885.09;5005227;28;20041;-66
2023/05/28 09:57:22;;;;;;;19.35;5.22;;;;;;;24.60;44.86;101887.66;5003599;28;20030;-65
2023/05/28 09:59:53;;;;;;;22.83;5.05;;;;;;;25.16;43.00;101889.03;5005897;28;20041;-65
2023/05/28 10:02:28;;;;;;;18.85;5.10;;;;;;;25.38;42.72;101891.81;5006834;28;20124;-65
2023/05/28 10:04:56;;;;;;;19.77;5.13;;;;;;;26.08;42.00;101889.75;5010076;28;20401;-65
2023/05/28 10:07:25;;;;;;;20.30;4.97;;;;;;;27.06;39.49;101891.56;5006839;28;20045;-65
2023/05/28 10:09:53;;;;;;;20.85;5.30;;;;;;;27.85;37.06;101884.06;5005466;28;20072;-67
2023/05/28 10:12:22;;;;;;;19.02;4.90;;;;;;;28.45;35.32;101883.56;5005436;28;20045;-67
2023/05/28 10:14:49;;;;;;;18.80;4.90;;;;;;;29.01;33.46;101886.84;5004871;28;20037;-65
2023/05/28 10:17:16;;;;;;;15.98;4.57;;;;;;;28.93;33.50;101889.97;5002398;28;20110;-65
2023/05/28 10:19:45;;;;;;;18.33;4.85;;;;;;;28.92;33.37;101888.25;5005686;28;20026;-66
2023/05/28 10:22:11;;;;;;;18.08;5.03;;;;;;;28.70;34.71;101888.56;5004774;28;20037;-65
2023/05/28 10:24:37;;;;;;;17.50;4.93;;;;;;;28.45;34.50;101887.16;5004450;28;20084;-65
2023/05/28 10:27:08;;;;;;;18.27;4.97;;;;;;;28.12;34.89;101887.16;5002361;28;20055;-65
2023/05/28 10:29:45;;;;;;;17.25;4.88;;;;;;;28.38;35.02;101888.47;5003991;28;20026;-68
2023/05/28 10:32:14;;;;;;;20.50;5.05;;;;;;;28.01;34.69;101885.03;5004577;28;20146;-66
2023/05/28 10:34:40;;;;;;;18.33;5.00;;;;;;;28.29;34.39;101886.25;5004017;28;20057;-65
2023/05/28 10:37:08;;;;;;;19.10;5.00;;;;;;;28.53;33.90;101882.19;4986813;28;20057;-72
2023/05/28 10:39:52;;;;;;;18.92;5.10;;;;;;;28.46;35.14;101875.34;5004102;28;20049;-69
2023/05/28 10:42:20;;;;;;;18.30;4.93;;;;;;;28.24;35.59;101880.22;5002785;28;20038;-71
2023/05/28 10:44:52;;;;;;;18.20;5.40;;;;;;;28.24;35.39;101888.34;5003989;28;20049;-73
2023/05/28 10:47:18;;;;;;;17.83;4.90;;;;;;;28.64;32.64;101889.78;5002640;28;20054;-72
2023/05/28 10:50:09;;;;;;;18.13;5.00;;;;;;;28.84;34.32;101891.38;5004042;28;20026;-71
2023/05/28 10:52:36;;;;;;;19.10;4.60;;;;;;;28.68;32.54;101894.09;5004163;28;20037;-68
2023/05/28 10:55:03;;;;;;;19.48;5.07;;;;;;;28.51;32.28;101897.72;5004772;28;20034;-72
2023/05/28 10:57:47;;;;;;;17.52;4.68;;;;;;;28.89;33.88;101892.97;5004733;28;20026;-72
2023/05/28 11:00:21;;;;;;;18.42;5.00;;;;;;;28.77;32.65;101895.41;5005010;28;20025;-73
2023/05/28 11:02:51;;;;;;;18.73;5.07;;;;;;;29.06;33.76;101903.78;5004563;28;20029;-72